Flight Track Log - Related Links

Times and Time Zones

All times are in EDT time to prevent confusion due to time zone crossing. See the TAM3785 flight status page for this flight to view local times or setup timezone preferences in your user account.

Time Position Orientation Groundspeed Altitude Reporting Facility
EDT Latitude Longitude Course Direction KTS MPH feet Rate Location/Type
Wed 07:40:00 PM -5.3302 -39.6969 217° Southwest  Level Estimated
Wed 07:41:00 PM -5.4119 -39.7583 217° Southwest  Level Estimated
Wed 07:42:00 PM -5.4936 -39.8198 217° Southwest  Level Estimated
Wed 07:43:00 PM -5.5753 -39.8812 217° Southwest  Level Estimated
Wed 07:44:00 PM -5.6570 -39.9427 217° Southwest  Level Estimated
Wed 07:45:00 PM -5.7387 -40.0042 217° Southwest  Level Estimated
Wed 07:46:00 PM -5.8204 -40.0657 217° Southwest  Level Estimated
Wed 07:47:00 PM -5.9021 -40.1272 217° Southwest  Level Estimated
Wed 07:48:00 PM -5.9838 -40.1888 217° Southwest  Level Estimated
Wed 07:49:00 PM -6.0655 -40.2504 217° Southwest  Level Estimated
Wed 07:50:00 PM -6.1471 -40.3119 217° Southwest  Level Estimated
Wed 07:51:00 PM -6.2288 -40.3736 217° Southwest  Level Estimated
Wed 07:52:00 PM -6.3105 -40.4352 217° Southwest  Level Estimated
Wed 07:53:00 PM -6.3921 -40.4968 217° Southwest  Level Estimated
Wed 07:54:00 PM -6.4737 -40.5585 217° Southwest  Level Estimated
Wed 07:55:00 PM -6.5554 -40.6202 217° Southwest  Level Estimated
Wed 07:56:00 PM -6.6370 -40.6819 217° Southwest  Level Estimated
Wed 07:57:00 PM -6.7186 -40.7436 217° Southwest  Level Estimated
Wed 07:58:00 PM -6.8002 -40.8053 217° Southwest  Level Estimated
Wed 07:59:00 PM -6.8818 -40.8671 217° Southwest  Level Estimated
Wed 08:00:00 PM -6.9634 -40.9289 217° Southwest  Level Estimated
Wed 08:01:00 PM -7.0450 -40.9907 217° Southwest  Level Estimated
Wed 08:02:00 PM -7.1266 -41.0525 217° Southwest  Level Estimated
Wed 08:03:00 PM -7.2081 -41.1144 217° Southwest  Level Estimated
Wed 08:04:00 PM -7.2897 -41.1763 217° Southwest  Level Estimated
Wed 08:05:00 PM -7.3713 -41.2382 217° Southwest  Level Estimated
Wed 08:06:00 PM -7.4528 -41.3001 217° Southwest  Level Estimated
Wed 08:07:00 PM -7.5343 -41.3620 217° Southwest  Level Estimated
Wed 08:08:00 PM -7.6159 -41.4240 217° Southwest  Level Estimated
Wed 08:09:00 PM -7.6974 -41.4860 217° Southwest  Level Estimated
Wed 08:10:00 PM -7.7789 -41.5480 217° Southwest  Level Estimated
Wed 08:11:00 PM -7.8604 -41.6100 217° Southwest  Level Estimated
Wed 08:12:00 PM -7.9419 -41.6721 217° Southwest  Level Estimated
Wed 08:13:00 PM -8.0234 -41.7342 217° Southwest  Level Estimated
Wed 08:14:00 PM -8.1048 -41.7963 217° Southwest  Level Estimated
Wed 08:15:00 PM -8.1863 -41.8584 217° Southwest  Level Estimated
Wed 08:16:00 PM -8.2677 -41.9206 217° Southwest  Level Estimated
Wed 08:17:00 PM -8.3492 -41.9828 217° Southwest  Level Estimated
Wed 08:18:00 PM -8.4306 -42.0450 217° Southwest  Level Estimated
Wed 08:19:00 PM -8.5120 -42.1072 217° Southwest  Level Estimated
Wed 08:20:00 PM -8.5934 -42.1695 217° Southwest  Level Estimated
Wed 08:21:00 PM -8.6749 -42.2318 217° Southwest  Level Estimated
Wed 08:22:00 PM -8.7562 -42.2941 217° Southwest  Level Estimated
Wed 08:23:00 PM -8.8376 -42.3565 217° Southwest  Level Estimated
Wed 08:24:00 PM -8.9190 -42.4188 217° Southwest  Level Estimated
Wed 08:25:00 PM -9.0003 -42.4812 217° Southwest  Level Estimated
Wed 08:26:00 PM -9.0817 -42.5437 217° Southwest  Level Estimated
Wed 08:27:00 PM -9.1630 -42.6061 217° Southwest  Level Estimated
Wed 08:28:00 PM -9.2444 -42.6686 217° Southwest  Level Estimated
Wed 08:29:00 PM -9.3257 -42.7311 217° Southwest  Level Estimated
Wed 08:30:00 PM -9.4070 -42.7937 217° Southwest  Level Estimated
Wed 08:31:00 PM -9.4883 -42.8563 217° Southwest  Level Estimated
Wed 08:32:00 PM -9.5696 -42.9189 217° Southwest  Level Estimated
Wed 08:33:00 PM -9.6509 -42.9815 217° Southwest  Level Estimated
Wed 08:34:00 PM -9.7321 -43.0442 217° Southwest  Level Estimated
Wed 08:35:00 PM -9.8134 -43.1069 217° Southwest  Level Estimated
Wed 08:36:00 PM -9.8946 -43.1696 217° Southwest  Level Estimated
Wed 08:37:00 PM -9.9759 -43.2324 217° Southwest  Level Estimated
Wed 08:38:00 PM -10.0571 -43.2952 217° Southwest  Level Estimated
Wed 08:39:00 PM -10.1383 -43.3580 217° Southwest  Level Estimated
Wed 08:40:00 PM -10.2195 -43.4208 217° Southwest  Level Estimated
Wed 08:41:00 PM -10.3007 -43.4837 217° Southwest  Level Estimated
Wed 08:42:00 PM -10.3818 -43.5466 217° Southwest  Level Estimated
Wed 08:43:00 PM -10.4630 -43.6096 217° Southwest  Level Estimated
Wed 08:44:00 PM -10.5442 -43.6726 217° Southwest  Level Estimated
Wed 08:45:00 PM -10.6253 -43.7356 217° Southwest  Level Estimated
Wed 08:46:00 PM -10.7064 -43.7986 217° Southwest  Level Estimated
Wed 08:47:00 PM -10.7875 -43.8617 217° Southwest  Level Estimated
Wed 08:48:00 PM -10.8686 -43.9248 217° Southwest  Level Estimated
Wed 08:49:00 PM -10.9497 -43.9880 217° Southwest  Level Estimated
Wed 08:50:00 PM -11.0308 -44.0512 217° Southwest  Level Estimated
Wed 08:51:00 PM -11.1118 -44.1144 217° Southwest  Level Estimated
Wed 08:52:00 PM -11.1929 -44.1777 217° Southwest  Level Estimated
Wed 08:53:00 PM -11.2739 -44.2410 217° Southwest  Level Estimated
Wed 08:54:00 PM -11.3549 -44.3043 217° Southwest  Level Estimated
Wed 08:55:00 PM -11.4359 -44.3676 217° Southwest  Level Estimated
Wed 08:56:00 PM -11.5169 -44.4310 217° Southwest  Level Estimated
Wed 08:57:00 PM -11.5979 -44.4945 218° Southwest  Level Estimated
Wed 08:58:00 PM -11.6788 -44.5579 218° Southwest  Level Estimated
Wed 08:59:00 PM -11.7598 -44.6215 218° Southwest  Level Estimated
Wed 09:00:00 PM -11.8407 -44.6850 218° Southwest  Level Estimated
Wed 09:01:00 PM -11.9216 -44.7486 218° Southwest  Level Estimated
Wed 09:02:00 PM -12.0026 -44.8122 218° Southwest  Level Estimated
Wed 09:03:00 PM -12.0834 -44.8759 218° Southwest  Level Estimated
Wed 09:04:00 PM -12.1643 -44.9396 218° Southwest  Level Estimated
Wed 09:05:00 PM -12.2452 -45.0033 218° Southwest  Level Estimated
Wed 09:06:00 PM -12.3260 -45.0671 218° Southwest  Level Estimated
Wed 09:07:00 PM -12.4069 -45.1309 218° Southwest  Level Estimated
Wed 09:08:00 PM -12.4877 -45.1948 218° Southwest  Level Estimated
Wed 09:09:00 PM -12.5685 -45.2587 218° Southwest  Level Estimated
Wed 09:10:00 PM -12.6493 -45.3226 218° Southwest  Level Estimated
Wed 09:11:00 PM -12.7300 -45.3866 218° Southwest  Level Estimated
Wed 09:12:00 PM -12.8108 -45.4506 218° Southwest  Level Estimated
Wed 09:13:00 PM -12.8915 -45.5147 218° Southwest  Level Estimated
Wed 09:14:00 PM -12.9723 -45.5788 218° Southwest  Level Estimated
Wed 09:15:00 PM -13.0530 -45.6429 218° Southwest  Level Estimated
Wed 09:16:00 PM -13.1337 -45.7071 218° Southwest  Level Estimated
Wed 09:17:00 PM -13.2143 -45.7713 218° Southwest  Level Estimated
Wed 09:18:00 PM -13.2950 -45.8356 218° Southwest  Level Estimated
Wed 09:19:00 PM -13.3757 -45.8999 218° Southwest  Level Estimated
Wed 09:20:00 PM -13.4563 -45.9643 218° Southwest  Level Estimated
Wed 09:21:00 PM -13.5369 -46.0287 218° Southwest  Level Estimated
Wed 09:22:00 PM -13.6175 -46.0931 218° Southwest  Level Estimated
Wed 09:23:00 PM -13.6981 -46.1576 218° Southwest  Level Estimated
Wed 09:24:00 PM -13.7786 -46.2221 218° Southwest  Level Estimated
Wed 09:25:00 PM -13.8592 -46.2867 218° Southwest  Level Estimated
Wed 09:26:00 PM -13.9397 -46.3513 218° Southwest  Level Estimated
Wed 09:27:00 PM -14.0202 -46.4160 218° Southwest  Level Estimated
Wed 09:28:00 PM -14.1007 -46.4807 218° Southwest  Level Estimated
Wed 09:29:00 PM -14.1812 -46.5454 218° Southwest  Level Estimated
Wed 09:30:00 PM -14.2617 -46.6102 218° Southwest  Level Estimated
Wed 09:31:00 PM -14.3421 -46.6751 218° Southwest  Level Estimated
Wed 09:32:00 PM -14.4225 -46.7400 218° Southwest  Level Estimated
Wed 09:33:00 PM -14.5029 -46.8049 218° Southwest  Level Estimated
Wed 09:34:00 PM -14.5833 -46.8699 218° Southwest  Level Estimated
Wed 09:35:00 PM -14.6637 -46.9349 218° Southwest  Level Estimated
Wed 09:36:00 PM -14.7441 -47.0000 218° Southwest  Level Estimated
Wed 09:37:00 PM -14.8244 -47.0651 218° Southwest  Level Estimated
Wed 09:38:00 PM -14.9047 -47.1303 218° Southwest  Level Estimated
Wed 09:39:00 PM -14.9850 -47.1955 218° Southwest  Level Estimated
Wed 09:40:00 PM -15.0653 -47.2608 218° Southwest  Level Estimated
Wed 09:41:00 PM -15.1456 -47.3262 218° Southwest  Level Estimated
Wed 09:42:00 PM -15.2258 -47.3915 218° Southwest  Level Estimated
Wed 09:43:00 PM -15.3060 -47.4570 218° Southwest  Level Estimated
Wed 09:44:00 PM -15.3862 -47.5224 218° Southwest  Level Estimated
Wed 09:45:00 PM -15.4664 -47.5880 218° Southwest  Level Estimated
Wed 09:46:00 PM -15.5466 -47.6535 218° Southwest  Level Estimated
Wed 09:47:00 PM -15.6267 -47.7192 218° Southwest  Level Estimated
Wed 09:48:00 PM -15.7069 -47.7849 218° Southwest  Level Estimated
Wed 09:49:00 PM -15.7870 -47.8506 218° Southwest  Level Estimated
Wed 09:50:00 PM -15.8626 -47.9127 218° Southwest  Level Estimated
Wed 09:51:00 PM -15.8626 -47.9127 128° Southeast  Level Estimated
Wed 09:52:00 PM -15.8626 -47.9127 128° Southeast  Level Estimated
Wed 09:53:00 PM -15.8626 -47.9127 128° Southeast  Level Estimated
Wed 09:54:00 PM -15.8626 -47.9127 128° Southeast  Level Estimated
Wed 09:55:00 PM -15.8626 -47.9127 128° Southeast  Level Estimated
Wed 09:56:00 PM -15.8626 -47.9127 128° Southeast  Level Estimated
Wed 09:57:00 PM -15.8626 -47.9127 128° Southeast  Level Estimated
Wed 09:58:00 PM -15.8626 -47.9127 128° Southeast  Level Estimated
Wed 09:59:00 PM -15.8626 -47.9127 128° Southeast  Level Estimated
Wed 10:00:00 PM -15.8626 -47.9127 128° Southeast  Level Estimated
Wed 10:01:00 PM -15.8626 -47.9127 128° Southeast  Level Estimated
Wed 10:02:00 PM -15.8626 -47.9127 128° Southeast  Level Estimated
Wed 10:03:00 PM -15.8626 -47.9127 128° Southeast  Level Estimated
Wed 10:04:00 PM -15.8626 -47.9127 128° Southeast  Level Estimated
Wed 10:05:00 PM -15.8626 -47.9127 128° Southeast  Level Estimated
Wed 10:06:00 PM -15.8626 -47.9127 128° Southeast  Level Estimated

Login

Don't have an account? Register now (free) for customized features, flight alerts, and more!